sensor_id;sensor_type;location;lat;lon;timestamp;P1;durP1;ratioP1;P2;durP2;ratioP2
21806;SDS011;11065;50.786;7.840;2023-05-10T00:00:16;0.40;;;0.40;;
21806;SDS011;11065;50.786;7.840;2023-05-10T00:02:44;0.50;;;0.50;;
21806;SDS011;11065;50.786;7.840;2023-05-10T00:05:12;2.17;;;0.47;;
21806;SDS011;11065;50.786;7.840;2023-05-10T00:07:41;0.40;;;0.40;;
21806;SDS011;11065;50.786;7.840;2023-05-10T00:10:11;0.93;;;0.70;;
21806;SDS011;11065;50.786;7.840;2023-05-10T00:12:41;1.40;;;0.50;;
21806;SDS011;11065;50.786;7.840;2023-05-10T00:15:10;0.53;;;0.47;;
21806;SDS011;11065;50.786;7.840;2023-05-10T00:17:38;0.80;;;0.60;;
21806;SDS011;11065;50.786;7.840;2023-05-10T00:20:06;0.40;;;0.40;;
21806;SDS011;11065;50.786;7.840;2023-05-10T00:22:35;0.50;;;0.47;;
21806;SDS011;11065;50.786;7.840;2023-05-10T00:25:03;1.90;;;0.60;;
21806;SDS011;11065;50.786;7.840;2023-05-10T00:27:32;1.37;;;0.60;;
21806;SDS011;11065;50.786;7.840;2023-05-10T00:30:02;0.50;;;0.47;;
21806;SDS011;11065;50.786;7.840;2023-05-10T00:32:30;0.50;;;0.50;;
21806;SDS011;11065;50.786;7.840;2023-05-10T00:34:58;0.80;;;0.57;;
21806;SDS011;11065;50.786;7.840;2023-05-10T00:37:26;1.03;;;0.50;;
21806;SDS011;11065;50.786;7.840;2023-05-10T00:39:54;0.40;;;0.40;;
21806;SDS011;11065;50.786;7.840;2023-05-10T00:42:22;0.57;;;0.40;;
21806;SDS011;11065;50.786;7.840;2023-05-10T00:44:52;0.40;;;0.30;;
21806;SDS011;11065;50.786;7.840;2023-05-10T00:47:21;0.50;;;0.37;;
21806;SDS011;11065;50.786;7.840;2023-05-10T00:49:50;0.50;;;0.27;;
21806;SDS011;11065;50.786;7.840;2023-05-10T00:52:18;0.40;;;0.40;;
21806;SDS011;11065;50.786;7.840;2023-05-10T00:54:47;0.80;;;0.30;;
21806;SDS011;11065;50.786;7.840;2023-05-10T00:57:15;0.30;;;0.30;;
21806;SDS011;11065;50.786;7.840;2023-05-10T00:59:43;0.90;;;0.50;;
21806;SDS011;11065;50.786;7.840;2023-05-10T01:02:12;0.30;;;0.30;;
21806;SDS011;11065;50.786;7.840;2023-05-10T01:04:42;0.77;;;0.40;;
21806;SDS011;11065;50.786;7.840;2023-05-10T01:07:10;0.80;;;0.40;;
21806;SDS011;11065;50.786;7.840;2023-05-10T01:09:39;0.70;;;0.50;;
21806;SDS011;11065;50.786;7.840;2023-05-10T01:12:07;0.50;;;0.50;;
21806;SDS011;11065;50.786;7.840;2023-05-10T01:14:35;0.40;;;0.40;;
21806;SDS011;11065;50.786;7.840;2023-05-10T01:17:05;0.77;;;0.50;;
21806;SDS011;11065;50.786;7.840;2023-05-10T01:19:35;0.70;;;0.50;;
21806;SDS011;11065;50.786;7.840;2023-05-10T01:22:08;0.80;;;0.60;;
21806;SDS011;11065;50.786;7.840;2023-05-10T01:33:56;0.97;;;0.80;;
21806;SDS011;11065;50.786;7.840;2023-05-10T01:36:29;1.00;;;0.90;;
21806;SDS011;11065;50.786;7.840;2023-05-10T01:39:06;1.70;;;0.90;;
21806;SDS011;11065;50.786;7.840;2023-05-10T01:41:40;1.70;;;1.10;;
21806;SDS011;11065;50.786;7.840;2023-05-10T01:44:16;1.63;;;1.00;;
21806;SDS011;11065;50.786;7.840;2023-05-10T01:46:52;1.43;;;1.03;;
21806;SDS011;11065;50.786;7.840;2023-05-10T01:49:29;1.27;;;1.17;;
21806;SDS011;11065;50.786;7.840;2023-05-10T01:52:04;1.10;;;1.00;;
21806;SDS011;11065;50.786;7.840;2023-05-10T01:54:36;1.40;;;1.10;;
21806;SDS011;11065;50.786;7.840;2023-05-10T01:57:08;2.20;;;1.40;;
21806;SDS011;11065;50.786;7.840;2023-05-10T01:59:38;1.87;;;1.67;;
21806;SDS011;11065;50.786;7.840;2023-05-10T02:02:07;1.63;;;1.30;;
21806;SDS011;11065;50.786;7.840;2023-05-10T02:04:39;2.03;;;1.53;;
21806;SDS011;11065;50.786;7.840;2023-05-10T02:07:09;2.43;;;1.80;;
21806;SDS011;11065;50.786;7.840;2023-05-10T02:09:39;2.10;;;1.60;;
21806;SDS011;11065;50.786;7.840;2023-05-10T02:12:09;1.97;;;1.80;;
21806;SDS011;11065;50.786;7.840;2023-05-10T02:14:41;2.50;;;1.73;;
21806;SDS011;11065;50.786;7.840;2023-05-10T02:17:10;2.30;;;1.60;;
21806;SDS011;11065;50.786;7.840;2023-05-10T02:19:42;2.13;;;1.73;;
21806;SDS011;11065;50.786;7.840;2023-05-10T02:22:11;2.60;;;1.97;;
21806;SDS011;11065;50.786;7.840;2023-05-10T02:24:40;2.37;;;1.97;;
21806;SDS011;11065;50.786;7.840;2023-05-10T02:27:08;3.40;;;2.03;;
21806;SDS011;11065;50.786;7.840;2023-05-10T02:29:38;2.37;;;1.80;;
21806;SDS011;11065;50.786;7.840;2023-05-10T02:32:06;2.60;;;2.07;;
21806;SDS011;11065;50.786;7.840;2023-05-10T02:34:37;3.00;;;1.83;;
21806;SDS011;11065;50.786;7.840;2023-05-10T02:37:07;2.40;;;1.60;;
21806;SDS011;11065;50.786;7.840;2023-05-10T02:39:37;2.67;;;1.90;;
21806;SDS011;11065;50.786;7.840;2023-05-10T02:42:10;2.03;;;1.60;;
21806;SDS011;11065;50.786;7.840;2023-05-10T02:44:45;3.53;;;1.50;;
21806;SDS011;11065;50.786;7.840;2023-05-10T02:47:16;1.73;;;1.50;;
21806;SDS011;11065;50.786;7.840;2023-05-10T02:49:44;3.33;;;1.47;;
21806;SDS011;11065;50.786;7.840;2023-05-10T02:52:16;2.27;;;1.77;;
21806;SDS011;11065;50.786;7.840;2023-05-10T02:54:49;2.60;;;1.70;;
21806;SDS011;11065;50.786;7.840;2023-05-10T02:57:21;2.57;;;1.77;;
21806;SDS011;11065;50.786;7.840;2023-05-10T02:59:54;2.20;;;1.43;;
21806;SDS011;11065;50.786;7.840;2023-05-10T03:02:22;2.80;;;1.87;;
21806;SDS011;11065;50.786;7.840;2023-05-10T03:04:50;3.57;;;1.73;;
21806;SDS011;11065;50.786;7.840;2023-05-10T03:07:20;1.90;;;1.60;;
21806;SDS011;11065;50.786;7.840;2023-05-10T03:09:48;1.57;;;1.23;;
21806;SDS011;11065;50.786;7.840;2023-05-10T03:12:19;2.30;;;1.37;;
21806;SDS011;11065;50.786;7.840;2023-05-10T03:14:56;2.13;;;1.70;;
21806;SDS011;11065;50.786;7.840;2023-05-10T03:17:33;2.63;;;1.70;;
21806;SDS011;11065;50.786;7.840;2023-05-10T03:20:08;2.10;;;1.40;;
21806;SDS011;11065;50.786;7.840;2023-05-10T03:22:40;2.30;;;1.47;;
21806;SDS011;11065;50.786;7.840;2023-05-10T03:25:12;1.70;;;1.23;;
21806;SDS011;11065;50.786;7.840;2023-05-10T03:27:43;2.73;;;1.47;;
21806;SDS011;11065;50.786;7.840;2023-05-10T03:30:13;2.27;;;1.50;;
21806;SDS011;11065;50.786;7.840;2023-05-10T03:32:42;2.47;;;1.23;;
21806;SDS011;11065;50.786;7.840;2023-05-10T03:35:11;1.80;;;1.10;;
21806;SDS011;11065;50.786;7.840;2023-05-10T03:37:41;2.80;;;1.20;;
21806;SDS011;11065;50.786;7.840;2023-05-10T03:40:10;1.57;;;1.20;;
21806;SDS011;11065;50.786;7.840;2023-05-10T03:42:40;1.87;;;1.27;;
21806;SDS011;11065;50.786;7.840;2023-05-10T03:45:09;1.53;;;1.10;;
21806;SDS011;11065;50.786;7.840;2023-05-10T03:47:37;3.33;;;1.50;;
21806;SDS011;11065;50.786;7.840;2023-05-10T03:50:06;1.90;;;1.60;;
21806;SDS011;11065;50.786;7.840;2023-05-10T03:52:34;2.10;;;1.67;;
21806;SDS011;11065;50.786;7.840;2023-05-10T03:55:07;2.10;;;1.47;;
21806;SDS011;11065;50.786;7.840;2023-05-10T03:57:35;2.17;;;1.60;;
21806;SDS011;11065;50.786;7.840;2023-05-10T04:00:05;3.23;;;1.40;;
21806;SDS011;11065;50.786;7.840;2023-05-10T04:02:40;2.23;;;1.40;;
21806;SDS011;11065;50.786;7.840;2023-05-10T04:05:14;2.33;;;1.50;;
21806;SDS011;11065;50.786;7.840;2023-05-10T04:07:42;1.77;;;1.30;;
21806;SDS011;11065;50.786;7.840;2023-05-10T04:10:12;3.07;;;1.37;;
21806;SDS011;11065;50.786;7.840;2023-05-10T04:12:40;1.60;;;1.23;;
21806;SDS011;11065;50.786;7.840;2023-05-10T04:15:09;2.87;;;1.37;;
21806;SDS011;11065;50.786;7.840;2023-05-10T04:17:37;2.10;;;1.27;;
21806;SDS011;11065;50.786;7.840;2023-05-10T04:20:05;1.57;;;1.33;;
21806;SDS011;11065;50.786;7.840;2023-05-10T04:22:34;2.10;;;1.47;;
21806;SDS011;11065;50.786;7.840;2023-05-10T04:25:03;1.53;;;1.23;;
21806;SDS011;11065;50.786;7.840;2023-05-10T04:27:33;1.17;;;0.90;;
21806;SDS011;11065;50.786;7.840;2023-05-10T04:30:01;1.27;;;0.87;;
21806;SDS011;11065;50.786;7.840;2023-05-10T04:32:29;1.93;;;1.10;;
21806;SDS011;11065;50.786;7.840;2023-05-10T04:34:57;1.47;;;0.83;;
21806;SDS011;11065;50.786;7.840;2023-05-10T04:37:25;2.10;;;1.23;;
21806;SDS011;11065;50.786;7.840;2023-05-10T04:39:54;0.97;;;0.70;;
21806;SDS011;11065;50.786;7.840;2023-05-10T04:42:22;1.10;;;0.80;;
21806;SDS011;11065;50.786;7.840;2023-05-10T04:44:51;1.07;;;0.83;;
21806;SDS011;11065;50.786;7.840;2023-05-10T04:47:19;1.50;;;0.80;;
21806;SDS011;11065;50.786;7.840;2023-05-10T04:49:47;1.73;;;0.70;;
21806;SDS011;11065;50.786;7.840;2023-05-10T04:52:15;4.67;;;0.80;;
21806;SDS011;11065;50.786;7.840;2023-05-10T04:54:44;0.70;;;0.63;;
21806;SDS011;11065;50.786;7.840;2023-05-10T04:57:12;1.70;;;0.70;;
21806;SDS011;11065;50.786;7.840;2023-05-10T04:59:40;1.80;;;0.67;;
21806;SDS011;11065;50.786;7.840;2023-05-10T05:02:10;1.13;;;0.80;;
21806;SDS011;11065;50.786;7.840;2023-05-10T05:04:38;1.43;;;0.90;;
21806;SDS011;11065;50.786;7.840;2023-05-10T05:07:06;1.10;;;0.80;;
21806;SDS011;11065;50.786;7.840;2023-05-10T05:09:33;1.13;;;0.80;;
21806;SDS011;11065;50.786;7.840;2023-05-10T05:12:02;1.30;;;0.90;;
21806;SDS011;11065;50.786;7.840;2023-05-10T05:14:32;1.10;;;0.80;;
21806;SDS011;11065;50.786;7.840;2023-05-10T05:17:00;1.13;;;1.00;;
21806;SDS011;11065;50.786;7.840;2023-05-10T05:19:29;1.30;;;0.90;;
21806;SDS011;11065;50.786;7.840;2023-05-10T05:21:58;2.13;;;0.93;;
21806;SDS011;11065;50.786;7.840;2023-05-10T05:24:26;2.03;;;1.03;;
21806;SDS011;11065;50.786;7.840;2023-05-10T05:26:54;1.83;;;1.27;;
21806;SDS011;11065;50.786;7.840;2023-05-10T05:29:22;1.93;;;1.23;;
21806;SDS011;11065;50.786;7.840;2023-05-10T05:31:50;2.73;;;1.30;;
21806;SDS011;11065;50.786;7.840;2023-05-10T05:34:20;1.63;;;1.10;;
21806;SDS011;11065;50.786;7.840;2023-05-10T05:36:50;2.13;;;1.30;;
21806;SDS011;11065;50.786;7.840;2023-05-10T05:39:18;1.47;;;1.20;;
21806;SDS011;11065;50.786;7.840;2023-05-10T05:41:46;3.10;;;1.67;;
21806;SDS011;11065;50.786;7.840;2023-05-10T05:44:14;1.53;;;1.23;;
21806;SDS011;11065;50.786;7.840;2023-05-10T05:46:42;2.43;;;1.60;;
21806;SDS011;11065;50.786;7.840;2023-05-10T05:49:10;2.40;;;1.70;;
21806;SDS011;11065;50.786;7.840;2023-05-10T05:51:38;1.80;;;1.37;;
21806;SDS011;11065;50.786;7.840;2023-05-10T05:54:07;2.87;;;1.60;;
21806;SDS011;11065;50.786;7.840;2023-05-10T05:56:35;2.87;;;1.53;;
21806;SDS011;11065;50.786;7.840;2023-05-10T05:59:04;2.83;;;1.87;;
21806;SDS011;11065;50.786;7.840;2023-05-10T06:01:32;3.43;;;2.03;;
21806;SDS011;11065;50.786;7.840;2023-05-10T06:04:00;3.37;;;2.27;;
21806;SDS011;11065;50.786;7.840;2023-05-10T06:06:28;4.10;;;2.27;;
21806;SDS011;11065;50.786;7.840;2023-05-10T06:08:58;3.20;;;2.37;;
21806;SDS011;11065;50.786;7.840;2023-05-10T06:11:28;3.20;;;2.37;;
21806;SDS011;11065;50.786;7.840;2023-05-10T06:13:57;3.17;;;2.20;;
21806;SDS011;11065;50.786;7.840;2023-05-10T06:16:25;3.30;;;2.33;;
21806;SDS011;11065;50.786;7.840;2023-05-10T06:18:54;3.17;;;2.53;;
21806;SDS011;11065;50.786;7.840;2023-05-10T06:21:22;4.10;;;2.53;;
21806;SDS011;11065;50.786;7.840;2023-05-10T06:23:50;3.67;;;2.63;;
21806;SDS011;11065;50.786;7.840;2023-05-10T06:26:18;4.87;;;2.97;;
21806;SDS011;11065;50.786;7.840;2023-05-10T06:28:48;4.43;;;2.77;;
21806;SDS011;11065;50.786;7.840;2023-05-10T06:31:16;3.43;;;2.83;;
21806;SDS011;11065;50.786;7.840;2023-05-10T06:33:44;4.27;;;2.87;;
21806;SDS011;11065;50.786;7.840;2023-05-10T06:36:12;4.30;;;3.10;;
21806;SDS011;11065;50.786;7.840;2023-05-10T06:38:40;4.80;;;3.53;;
21806;SDS011;11065;50.786;7.840;2023-05-10T06:41:08;3.90;;;2.87;;
21806;SDS011;11065;50.786;7.840;2023-05-10T06:43:37;4.50;;;3.20;;
21806;SDS011;11065;50.786;7.840;2023-05-10T06:46:08;4.47;;;3.33;;
21806;SDS011;11065;50.786;7.840;2023-05-10T06:48:36;4.23;;;2.97;;
21806;SDS011;11065;50.786;7.840;2023-05-10T06:51:04;4.03;;;3.13;;
21806;SDS011;11065;50.786;7.840;2023-05-10T06:53:32;3.83;;;3.17;;
21806;SDS011;11065;50.786;7.840;2023-05-10T06:56:00;4.00;;;3.30;;
21806;SDS011;11065;50.786;7.840;2023-05-10T06:58:29;5.80;;;3.77;;
21806;SDS011;11065;50.786;7.840;2023-05-10T07:01:02;3.73;;;3.30;;
21806;SDS011;11065;50.786;7.840;2023-05-10T07:03:32;3.00;;;2.47;;
21806;SDS011;11065;50.786;7.840;2023-05-10T07:06:01;3.87;;;2.60;;
21806;SDS011;11065;50.786;7.840;2023-05-10T07:08:30;3.10;;;2.47;;
21806;SDS011;11065;50.786;7.840;2023-05-10T07:10:59;2.50;;;1.83;;
21806;SDS011;11065;50.786;7.840;2023-05-10T07:13:28;2.83;;;1.87;;
21806;SDS011;11065;50.786;7.840;2023-05-10T07:15:56;2.30;;;1.67;;
21806;SDS011;11065;50.786;7.840;2023-05-10T07:18:24;2.03;;;1.57;;
21806;SDS011;11065;50.786;7.840;2023-05-10T07:20:54;1.40;;;1.27;;
21806;SDS011;11065;50.786;7.840;2023-05-10T07:23:22;1.70;;;1.43;;
21806;SDS011;11065;50.786;7.840;2023-05-10T07:25:50;4.63;;;1.63;;
21806;SDS011;11065;50.786;7.840;2023-05-10T07:28:19;3.33;;;1.60;;
21806;SDS011;11065;50.786;7.840;2023-05-10T07:30:48;2.53;;;1.90;;
21806;SDS011;11065;50.786;7.840;2023-05-10T07:33:16;3.57;;;2.20;;
21806;SDS011;11065;50.786;7.840;2023-05-10T07:35:44;3.10;;;2.03;;
21806;SDS011;11065;50.786;7.840;2023-05-10T07:38:13;3.40;;;2.60;;
21806;SDS011;11065;50.786;7.840;2023-05-10T07:40:42;4.90;;;2.57;;
21806;SDS011;11065;50.786;7.840;2023-05-10T07:43:10;4.00;;;2.80;;
21806;SDS011;11065;50.786;7.840;2023-05-10T07:45:38;4.50;;;3.27;;
21806;SDS011;11065;50.786;7.840;2023-05-10T07:48:06;5.87;;;3.80;;
21806;SDS011;11065;50.786;7.840;2023-05-10T07:50:34;6.93;;;4.10;;
21806;SDS011;11065;50.786;7.840;2023-05-10T07:53:02;5.20;;;4.33;;
21806;SDS011;11065;50.786;7.840;2023-05-10T07:55:31;7.13;;;4.57;;
21806;SDS011;11065;50.786;7.840;2023-05-10T07:58:00;7.47;;;4.93;;
21806;SDS011;11065;50.786;7.840;2023-05-10T08:00:28;6.50;;;4.80;;
21806;SDS011;11065;50.786;7.840;2023-05-10T08:02:57;6.20;;;4.63;;
21806;SDS011;11065;50.786;7.840;2023-05-10T08:05:25;7.13;;;5.50;;
21806;SDS011;11065;50.786;7.840;2023-05-10T08:07:53;6.67;;;4.93;;
21806;SDS011;11065;50.786;7.840;2023-05-10T08:10:21;5.87;;;4.73;;
21806;SDS011;11065;50.786;7.840;2023-05-10T08:12:50;9.10;;;5.47;;
21806;SDS011;11065;50.786;7.840;2023-05-10T08:15:19;7.30;;;5.23;;
21806;SDS011;11065;50.786;7.840;2023-05-10T08:17:47;6.43;;;4.90;;
21806;SDS011;11065;50.786;7.840;2023-05-10T08:20:15;7.50;;;5.33;;
21806;SDS011;11065;50.786;7.840;2023-05-10T08:22:45;6.80;;;5.03;;
21806;SDS011;11065;50.786;7.840;2023-05-10T08:25:16;7.10;;;5.50;;
21806;SDS011;11065;50.786;7.840;2023-05-10T08:27:45;6.40;;;5.13;;
21806;SDS011;11065;50.786;7.840;2023-05-10T08:30:14;6.90;;;5.33;;
21806;SDS011;11065;50.786;7.840;2023-05-10T08:32:42;8.00;;;6.17;;
21806;SDS011;11065;50.786;7.840;2023-05-10T08:35:10;7.87;;;5.83;;
21806;SDS011;11065;50.786;7.840;2023-05-10T08:37:38;7.47;;;5.87;;
21806;SDS011;11065;50.786;7.840;2023-05-10T08:40:07;6.87;;;5.27;;
21806;SDS011;11065;50.786;7.840;2023-05-10T08:42:39;8.03;;;5.70;;
21806;SDS011;11065;50.786;7.840;2023-05-10T08:45:10;8.10;;;5.57;;
21806;SDS011;11065;50.786;7.840;2023-05-10T08:47:41;6.57;;;5.20;;
21806;SDS011;11065;50.786;7.840;2023-05-10T08:50:09;6.73;;;5.03;;
21806;SDS011;11065;50.786;7.840;2023-05-10T08:52:38;7.00;;;5.13;;
21806;SDS011;11065;50.786;7.840;2023-05-10T08:55:08;6.17;;;5.13;;
21806;SDS011;11065;50.786;7.840;2023-05-10T08:57:36;6.03;;;4.80;;
21806;SDS011;11065;50.786;7.840;2023-05-10T09:00:05;7.90;;;5.10;;
21806;SDS011;11065;50.786;7.840;2023-05-10T09:02:35;7.13;;;4.67;;
21806;SDS011;11065;50.786;7.840;2023-05-10T09:05:06;7.00;;;4.47;;
21806;SDS011;11065;50.786;7.840;2023-05-10T09:07:36;8.30;;;4.60;;
21806;SDS011;11065;50.786;7.840;2023-05-10T09:10:05;6.57;;;4.50;;
21806;SDS011;11065;50.786;7.840;2023-05-10T09:12:36;5.50;;;3.73;;
21806;SDS011;11065;50.786;7.840;2023-05-10T09:15:04;6.67;;;3.87;;
21806;SDS011;11065;50.786;7.840;2023-05-10T09:17:34;5.50;;;3.73;;
21806;SDS011;11065;50.786;7.840;2023-05-10T09:20:04;5.70;;;3.43;;
21806;SDS011;11065;50.786;7.840;2023-05-10T09:22:34;6.03;;;3.97;;
21806;SDS011;11065;50.786;7.840;2023-05-10T09:25:06;4.60;;;3.30;;
21806;SDS011;11065;50.786;7.840;2023-05-10T09:27:35;4.40;;;3.00;;
21806;SDS011;11065;50.786;7.840;2023-05-10T09:30:03;3.80;;;2.63;;
21806;SDS011;11065;50.786;7.840;2023-05-10T09:32:36;6.77;;;3.13;;
21806;SDS011;11065;50.786;7.840;2023-05-10T09:35:10;3.80;;;2.63;;
21806;SDS011;11065;50.786;7.840;2023-05-10T09:37:40;5.03;;;3.03;;
21806;SDS011;11065;50.786;7.840;2023-05-10T09:40:11;4.53;;;2.67;;
21806;SDS011;11065;50.786;7.840;2023-05-10T09:42:41;4.03;;;2.40;;
21806;SDS011;11065;50.786;7.840;2023-05-10T09:45:18;3.37;;;2.40;;
21806;SDS011;11065;50.786;7.840;2023-05-10T09:47:46;5.03;;;2.83;;
21806;SDS011;11065;50.786;7.840;2023-05-10T09:50:15;5.47;;;2.67;;
21806;SDS011;11065;50.786;7.840;2023-05-10T09:52:47;3.17;;;2.27;;
21806;SDS011;11065;50.786;7.840;2023-05-10T09:55:17;3.83;;;2.47;;
21806;SDS011;11065;50.786;7.840;2023-05-10T09:57:46;3.67;;;2.07;;
21806;SDS011;11065;50.786;7.840;2023-05-10T10:00:16;3.90;;;2.17;;
21806;SDS011;11065;50.786;7.840;2023-05-10T10:02:47;3.20;;;2.00;;
21806;SDS011;11065;50.786;7.840;2023-05-10T10:05:22;4.37;;;2.20;;
21806;SDS011;11065;50.786;7.840;2023-05-10T10:07:56;3.23;;;2.20;;
21806;SDS011;11065;50.786;7.840;2023-05-10T10:10:24;3.17;;;1.80;;
21806;SDS011;11065;50.786;7.840;2023-05-10T10:12:52;2.87;;;1.77;;
21806;SDS011;11065;50.786;7.840;2023-05-10T10:15:21;3.20;;;1.90;;
21806;SDS011;11065;50.786;7.840;2023-05-10T10:17:50;2.57;;;1.50;;
21806;SDS011;11065;50.786;7.840;2023-05-10T10:20:19;2.30;;;1.73;;
21806;SDS011;11065;50.786;7.840;2023-05-10T10:22:49;2.50;;;1.70;;
21806;SDS011;11065;50.786;7.840;2023-05-10T10:25:18;3.50;;;1.90;;
21806;SDS011;11065;50.786;7.840;2023-05-10T10:27:49;2.30;;;1.70;;
21806;SDS011;11065;50.786;7.840;2023-05-10T10:30:39;2.43;;;1.50;;
21806;SDS011;11065;50.786;7.840;2023-05-10T10:33:13;3.73;;;1.73;;
21806;SDS011;11065;50.786;7.840;2023-05-10T10:35:57;2.30;;;1.60;;
21806;SDS011;11065;50.786;7.840;2023-05-10T10:38:36;3.67;;;1.83;;
21806;SDS011;11065;50.786;7.840;2023-05-10T10:41:30;2.90;;;1.40;;
21806;SDS011;11065;50.786;7.840;2023-05-10T10:47:05;1.50;;;0.87;;
21806;SDS011;11065;50.786;7.840;2023-05-10T10:50:05;1.90;;;0.90;;
21806;SDS011;11065;50.786;7.840;2023-05-10T10:52:34;1.30;;;0.90;;
21806;SDS011;11065;50.786;7.840;2023-05-10T10:55:05;1.33;;;0.73;;
21806;SDS011;11065;50.786;7.840;2023-05-10T10:57:48;1.77;;;0.87;;
21806;SDS011;11065;50.786;7.840;2023-05-10T11:00:22;1.40;;;0.80;;
21806;SDS011;11065;50.786;7.840;2023-05-10T11:02:56;2.10;;;0.83;;
21806;SDS011;11065;50.786;7.840;2023-05-10T11:05:33;1.20;;;0.87;;
21806;SDS011;11065;50.786;7.840;2023-05-10T11:08:06;1.23;;;0.80;;
21806;SDS011;11065;50.786;7.840;2023-05-10T11:10:48;1.37;;;0.50;;
21806;SDS011;11065;50.786;7.840;2023-05-10T11:13:40;1.13;;;0.60;;
21806;SDS011;11065;50.786;7.840;2023-05-10T11:16:10;0.50;;;0.40;;
21806;SDS011;11065;50.786;7.840;2023-05-10T11:18:39;0.83;;;0.67;;
21806;SDS011;11065;50.786;7.840;2023-05-10T11:21:08;2.30;;;0.60;;
21806;SDS011;11065;50.786;7.840;2023-05-10T11:23:48;0.53;;;0.50;;
21806;SDS011;11065;50.786;7.840;2023-05-10T11:26:18;1.50;;;0.63;;
21806;SDS011;11065;50.786;7.840;2023-05-10T11:28:49;0.70;;;0.50;;
21806;SDS011;11065;50.786;7.840;2023-05-10T11:31:19;0.77;;;0.50;;
21806;SDS011;11065;50.786;7.840;2023-05-10T11:33:48;0.60;;;0.40;;
21806;SDS011;11065;50.786;7.840;2023-05-10T11:36:18;0.93;;;0.50;;
21806;SDS011;11065;50.786;7.840;2023-05-10T11:38:47;1.30;;;0.70;;
21806;SDS011;11065;50.786;7.840;2023-05-10T11:41:18;0.77;;;0.60;;
21806;SDS011;11065;50.786;7.840;2023-05-10T11:43:49;0.90;;;0.73;;
21806;SDS011;11065;50.786;7.840;2023-05-10T11:46:19;0.83;;;0.57;;
21806;SDS011;11065;50.786;7.840;2023-05-10T11:48:49;0.80;;;0.70;;
21806;SDS011;11065;50.786;7.840;2023-05-10T11:51:19;0.87;;;0.80;;
21806;SDS011;11065;50.786;7.840;2023-05-10T11:53:49;1.13;;;0.90;;
21806;SDS011;11065;50.786;7.840;2023-05-10T11:56:19;1.20;;;0.83;;
21806;SDS011;11065;50.786;7.840;2023-05-10T11:58:52;1.43;;;1.10;;
21806;SDS011;11065;50.786;7.840;2023-05-10T12:01:21;1.60;;;1.10;;
21806;SDS011;11065;50.786;7.840;2023-05-10T12:03:51;1.63;;;0.93;;
21806;SDS011;11065;50.786;7.840;2023-05-10T12:06:21;1.63;;;0.90;;
21806;SDS011;11065;50.786;7.840;2023-05-10T12:08:49;1.40;;;0.93;;
21806;SDS011;11065;50.786;7.840;2023-05-10T12:11:24;1.67;;;1.27;;
21806;SDS011;11065;50.786;7.840;2023-05-10T12:13:53;1.33;;;1.13;;
21806;SDS011;11065;50.786;7.840;2023-05-10T12:16:22;1.73;;;1.23;;
21806;SDS011;11065;50.786;7.840;2023-05-10T12:18:51;2.90;;;1.23;;
21806;SDS011;11065;50.786;7.840;2023-05-10T12:21:20;1.70;;;1.27;;
21806;SDS011;11065;50.786;7.840;2023-05-10T12:23:49;2.60;;;1.30;;
21806;SDS011;11065;50.786;7.840;2023-05-10T12:26:22;1.80;;;1.33;;
21806;SDS011;11065;50.786;7.840;2023-05-10T12:28:52;1.37;;;1.10;;
21806;SDS011;11065;50.786;7.840;2023-05-10T12:31:20;1.53;;;1.07;;
21806;SDS011;11065;50.786;7.840;2023-05-10T12:33:49;2.53;;;1.40;;
21806;SDS011;11065;50.786;7.840;2023-05-10T12:36:17;1.90;;;1.47;;
21806;SDS011;11065;50.786;7.840;2023-05-10T12:38:56;2.10;;;1.47;;
21806;SDS011;11065;50.786;7.840;2023-05-10T12:41:32;2.13;;;1.40;;
21806;SDS011;11065;50.786;7.840;2023-05-10T12:44:00;2.90;;;1.93;;
21806;SDS011;11065;50.786;7.840;2023-05-10T12:46:28;3.63;;;2.27;;
21806;SDS011;11065;50.786;7.840;2023-05-10T12:48:56;3.00;;;2.03;;
21806;SDS011;11065;50.786;7.840;2023-05-10T12:51:35;4.80;;;2.40;;
21806;SDS011;11065;50.786;7.840;2023-05-10T12:54:03;4.93;;;2.23;;
21806;SDS011;11065;50.786;7.840;2023-05-10T12:56:32;4.33;;;2.70;;
21806;SDS011;11065;50.786;7.840;2023-05-10T12:59:00;5.43;;;3.60;;
21806;SDS011;11065;50.786;7.840;2023-05-10T13:01:28;4.47;;;3.00;;
21806;SDS011;11065;50.786;7.840;2023-05-10T13:03:56;6.63;;;3.50;;
21806;SDS011;11065;50.786;7.840;2023-05-10T13:06:26;5.23;;;3.53;;
21806;SDS011;11065;50.786;7.840;2023-05-10T13:08:54;7.83;;;4.20;;
21806;SDS011;11065;50.786;7.840;2023-05-10T13:11:23;5.00;;;3.90;;
21806;SDS011;11065;50.786;7.840;2023-05-10T13:13:53;5.20;;;3.60;;
21806;SDS011;11065;50.786;7.840;2023-05-10T13:16:21;6.10;;;4.07;;
21806;SDS011;11065;50.786;7.840;2023-05-10T13:18:50;5.73;;;3.90;;
21806;SDS011;11065;50.786;7.840;2023-05-10T13:21:18;7.27;;;4.50;;
21806;SDS011;11065;50.786;7.840;2023-05-10T13:23:46;5.33;;;3.63;;
21806;SDS011;11065;50.786;7.840;2023-05-10T13:26:14;4.43;;;3.40;;
21806;SDS011;11065;50.786;7.840;2023-05-10T13:28:43;5.10;;;3.80;;
21806;SDS011;11065;50.786;7.840;2023-05-10T13:31:13;5.93;;;4.00;;
21806;SDS011;11065;50.786;7.840;2023-05-10T13:33:41;5.27;;;3.60;;
21806;SDS011;11065;50.786;7.840;2023-05-10T13:36:09;5.70;;;3.80;;
21806;SDS011;11065;50.786;7.840;2023-05-10T13:38:37;8.33;;;4.30;;
21806;SDS011;11065;50.786;7.840;2023-05-10T13:41:05;5.63;;;4.00;;
21806;SDS011;11065;50.786;7.840;2023-05-10T13:43:34;5.40;;;3.70;;
21806;SDS011;11065;50.786;7.840;2023-05-10T13:46:02;5.17;;;3.47;;
21806;SDS011;11065;50.786;7.840;2023-05-10T13:48:31;6.33;;;3.57;;
21806;SDS011;11065;50.786;7.840;2023-05-10T13:51:03;6.03;;;4.27;;
21806;SDS011;11065;50.786;7.840;2023-05-10T13:53:31;5.90;;;3.70;;
21806;SDS011;11065;50.786;7.840;2023-05-10T13:55:59;5.03;;;3.57;;
21806;SDS011;11065;50.786;7.840;2023-05-10T13:58:34;4.73;;;3.67;;
21806;SDS011;11065;50.786;7.840;2023-05-10T14:01:02;5.60;;;3.90;;
21806;SDS011;11065;50.786;7.840;2023-05-10T14:03:32;5.73;;;3.80;;
21806;SDS011;11065;50.786;7.840;2023-05-10T14:06:00;5.30;;;4.03;;
21806;SDS011;11065;50.786;7.840;2023-05-10T14:08:28;5.37;;;3.60;;
21806;SDS011;11065;50.786;7.840;2023-05-10T14:10:56;5.33;;;3.70;;
21806;SDS011;11065;50.786;7.840;2023-05-10T14:13:24;5.07;;;3.53;;
21806;SDS011;11065;50.786;7.840;2023-05-10T14:15:53;5.17;;;3.63;;
21806;SDS011;11065;50.786;7.840;2023-05-10T14:18:21;5.40;;;4.03;;
21806;SDS011;11065;50.786;7.840;2023-05-10T14:20:51;5.67;;;3.63;;
21806;SDS011;11065;50.786;7.840;2023-05-10T14:23:19;4.93;;;3.30;;
21806;SDS011;11065;50.786;7.840;2023-05-10T14:25:50;5.47;;;3.57;;
21806;SDS011;11065;50.786;7.840;2023-05-10T14:28:18;8.07;;;3.80;;
21806;SDS011;11065;50.786;7.840;2023-05-10T14:30:47;5.77;;;3.63;;
21806;SDS011;11065;50.786;7.840;2023-05-10T14:33:16;5.13;;;3.60;;
21806;SDS011;11065;50.786;7.840;2023-05-10T14:35:44;6.60;;;3.43;;
21806;SDS011;11065;50.786;7.840;2023-05-10T14:38:14;4.43;;;3.03;;
21806;SDS011;11065;50.786;7.840;2023-05-10T14:40:42;6.03;;;3.50;;
21806;SDS011;11065;50.786;7.840;2023-05-10T14:43:10;4.60;;;3.10;;
21806;SDS011;11065;50.786;7.840;2023-05-10T14:45:38;4.80;;;3.20;;
21806;SDS011;11065;50.786;7.840;2023-05-10T14:48:06;3.60;;;2.70;;
21806;SDS011;11065;50.786;7.840;2023-05-10T14:50:37;4.70;;;3.00;;
21806;SDS011;11065;50.786;7.840;2023-05-10T14:53:05;4.40;;;3.23;;
21806;SDS011;11065;50.786;7.840;2023-05-10T14:55:35;5.13;;;3.20;;
21806;SDS011;11065;50.786;7.840;2023-05-10T14:58:04;5.00;;;3.70;;
21806;SDS011;11065;50.786;7.840;2023-05-10T15:00:32;4.47;;;3.00;;
21806;SDS011;11065;50.786;7.840;2023-05-10T15:03:01;4.87;;;3.20;;
21806;SDS011;11065;50.786;7.840;2023-05-10T15:05:30;4.20;;;3.10;;
21806;SDS011;11065;50.786;7.840;2023-05-10T15:07:58;3.43;;;2.60;;
21806;SDS011;11065;50.786;7.840;2023-05-10T15:10:26;3.87;;;2.80;;
21806;SDS011;11065;50.786;7.840;2023-05-10T15:12:56;4.40;;;3.17;;
21806;SDS011;11065;50.786;7.840;2023-05-10T15:15:24;4.63;;;3.40;;